Fort White, Florida
Current Conditions -  °F | °C
As of 10:55 AM on Sunday 23 Nov 2014 (Local Time) from KLCQ Reporting Station
Overcast Overcast  
Wind Chill: 73°   Ceiling: 1200
Heat Index: 73°   Visibility: 10mi
Dew Point: 70°   Wind: 9mph
Humidity: 88%   Direction: 190°S
Pressure: 29.98"   Gusts: NA
Location:  29.92°N, 82.71°W
Report Text: KLCQ 231555Z AUTO 19008KT 160V220 10SM OVC012 23/21 A2998 RMK AO2
Loading
Personal Weather Stations






























Interactive Weather Map New forecast layout! Learn more

10-Day Weather Forecast

Advertisements
Track Severe Weather on mobile